Time;durP1;ratioP1;P1;durP2;ratioP2;P2;SDS_P1;SDS_P2;PMS_P1;PMS_P2;Temp;Humidity;BMP_temperature;BMP_pressure;BME280_temperature;BME280_humidity;BME280_pressure;Samples;Min_cycle;Max_cycle;Signal;HPM_P1;HPM_P2
2023/10/28 00:00:48;;;;;;;4.07;0.90;;;12.30;1.00;;;;;;5002215;28;20391;-86
2023/10/28 00:03:15;;;;;;;5.93;1.30;;;12.30;1.00;;;;;;5018860;28;20426;-84
2023/10/28 00:05:41;;;;;;;3.70;1.20;;;12.30;1.00;;;;;;5018501;28;20390;-84
2023/10/28 00:08:07;;;;;;;5.65;1.08;;;12.30;1.00;;;;;;5013377;28;20513;-85
2023/10/28 00:10:34;;;;;;;2.05;0.90;;;12.30;1.00;;;;;;4981878;28;20428;-85
2023/10/28 00:12:59;;;;;;;5.40;0.93;;;12.20;1.00;;;;;;4981696;28;20398;-87
2023/10/28 00:15:25;;;;;;;3.17;1.20;;;12.30;1.00;;;;;;4981694;28;20477;-84
2023/10/28 00:17:51;;;;;;;3.50;1.07;;;12.30;1.00;;;;;;4999445;28;20486;-85
2023/10/28 00:20:18;;;;;;;3.40;1.20;;;12.30;1.00;;;;;;4998236;28;20395;-83
2023/10/28 00:22:48;;;;;;;3.90;1.00;;;12.30;1.00;;;;;;4998750;28;20469;-83
2023/10/28 00:25:15;;;;;;;4.75;1.50;;;12.30;1.00;;;;;;4998741;28;20386;-84
2023/10/28 00:27:41;;;;;;;3.20;1.13;;;12.30;1.00;;;;;;4999196;28;20398;-84
2023/10/28 00:30:10;;;;;;;4.35;1.27;;;12.20;1.00;;;;;;4998151;28;20382;-84
2023/10/28 00:32:39;;;;;;;4.05;1.30;;;12.30;1.00;;;;;;4997320;28;20390;-83
2023/10/28 00:35:07;;;;;;;3.30;1.30;;;12.30;1.00;;;;;;4979444;28;20462;-84
2023/10/28 00:37:33;;;;;;;3.63;1.42;;;12.20;1.00;;;;;;4980895;28;20489;-84
2023/10/28 00:39:59;;;;;;;2.60;1.00;;;12.20;1.00;;;;;;5007519;28;20906;-82
2023/10/28 00:42:24;;;;;;;4.65;1.15;;;12.20;1.00;;;;;;4992599;28;20390;-84
2023/10/28 00:44:50;;;;;;;2.50;0.90;;;12.10;1.00;;;;;;4998306;28;20387;-84
2023/10/28 00:47:16;;;;;;;2.35;1.30;;;12.10;1.00;;;;;;4983151;28;20423;-84
2023/10/28 00:49:43;;;;;;;4.30;1.05;;;12.10;1.00;;;;;;4995775;28;20386;-84
2023/10/28 00:52:08;;;;;;;1.80;0.80;;;12.10;1.00;;;;;;4987950;28;20466;-83
2023/10/28 00:54:37;;;;;;;2.75;1.23;;;12.10;1.00;;;;;;4981112;28;20422;-83
2023/10/28 00:57:02;;;;;;;3.20;1.10;;;12.10;1.00;;;;;;5009919;28;20402;-85
2023/10/28 00:59:29;;;;;;;2.93;0.90;;;12.10;1.00;;;;;;5006528;28;20397;-85
2023/10/28 01:01:54;;;;;;;3.90;1.15;;;12.10;1.00;;;;;;4997025;28;20421;-83
2023/10/28 01:04:20;;;;;;;3.80;1.02;;;12.10;1.00;;;;;;4997918;28;20442;-83
2023/10/28 01:06:46;;;;;;;4.63;1.10;;;12.10;1.00;;;;;;5000221;28;20879;-82
2023/10/28 01:09:12;;;;;;;3.57;0.80;;;12.20;1.00;;;;;;4981559;28;20787;-82
2023/10/28 01:11:41;;;;;;;3.13;0.80;;;12.20;1.00;;;;;;4980936;28;20469;-81
2023/10/28 01:14:07;;;;;;;1.85;0.80;;;12.20;1.00;;;;;;4982283;28;20432;-83
2023/10/28 01:16:33;;;;;;;2.80;1.40;;;12.30;1.00;;;;;;5001527;28;20398;-85
2023/10/28 01:18:59;;;;;;;1.50;1.00;;;12.20;1.00;;;;;;4999847;28;20762;-87
2023/10/28 01:21:25;;;;;;;2.03;1.00;;;12.30;1.00;;;;;;5002926;28;20450;-87
2023/10/28 01:23:51;;;;;;;3.35;1.10;;;12.40;1.00;;;;;;4979443;28;20399;-85
2023/10/28 01:26:16;;;;;;;1.70;0.70;;;12.40;1.00;;;;;;4984217;28;20390;-84
2023/10/28 01:28:42;;;;;;;4.10;1.20;;;12.40;1.00;;;;;;4985506;28;20394;-86
2023/10/28 01:31:08;;;;;;;1.90;0.60;;;12.40;1.00;;;;;;4992781;28;20398;-84
2023/10/28 01:33:34;;;;;;;1.73;0.70;;;12.50;1.00;;;;;;4986116;28;20402;-83
2023/10/28 01:36:00;;;;;;;3.17;0.73;;;12.40;1.00;;;;;;5001716;28;20763;-86
2023/10/28 01:38:26;;;;;;;2.03;0.70;;;12.50;1.00;;;;;;4981394;28;20815;-84
2023/10/28 01:40:52;;;;;;;4.40;1.00;;;12.50;1.00;;;;;;5015787;28;20384;-85
2023/10/28 01:43:19;;;;;;;2.97;1.05;;;12.50;1.00;;;;;;4992704;28;20525;-84
2023/10/28 01:45:45;;;;;;;6.80;1.40;;;12.60;1.00;;;;;;5000485;28;20410;-85
2023/10/28 01:48:12;;;;;;;2.17;0.90;;;12.60;1.00;;;;;;4999846;28;20391;-84
2023/10/28 01:50:37;;;;;;;2.60;0.80;;;12.60;1.00;;;;;;4992743;28;20389;-84
2023/10/28 01:53:03;;;;;;;3.58;0.65;;;12.50;1.00;;;;;;4987332;28;20394;-85
2023/10/28 01:55:29;;;;;;;2.33;0.95;;;12.50;1.00;;;;;;5000653;28;20481;-85
2023/10/28 01:57:55;;;;;;;2.65;1.05;;;12.50;1.00;;;;;;4981441;28;20775;-85
2023/10/28 02:00:22;;;;;;;2.83;0.75;;;12.50;1.00;;;;;;4979956;28;20387;-85
2023/10/28 02:02:48;;;;;;;2.20;0.60;;;12.50;1.00;;;;;;4999346;28;20925;-83
2023/10/28 02:05:16;;;;;;;1.70;0.60;;;12.50;1.00;;;;;;4996752;28;20394;-83
2023/10/28 02:07:41;;;;;;;2.30;1.10;;;12.40;1.00;;;;;;4977512;28;20383;-82
2023/10/28 02:10:07;;;;;;;2.57;0.87;;;12.50;1.00;;;;;;4991761;28;20473;-82
2023/10/28 02:12:36;;;;;;;1.80;0.60;;;12.40;1.00;;;;;;5000232;28;20481;-82
2023/10/28 02:15:07;;;;;;;2.00;0.90;;;12.40;1.00;;;;;;4991286;28;20394;-83
2023/10/28 02:17:32;;;;;;;2.20;0.90;;;12.40;1.00;;;;;;4984860;28;20905;-82
2023/10/28 02:19:58;;;;;;;2.23;1.10;;;12.30;1.00;;;;;;5000367;28;20401;-82
2023/10/28 02:22:24;;;;;;;2.00;0.70;;;12.40;1.00;;;;;;4999858;28;20947;-83
2023/10/28 02:24:49;;;;;;;1.98;0.50;;;12.30;1.00;;;;;;5000351;28;20402;-82
2023/10/28 02:27:15;;;;;;;1.98;0.60;;;12.30;1.00;;;;;;4999788;28;20393;-82
2023/10/28 02:29:40;;;;;;;2.30;0.90;;;12.30;1.00;;;;;;4987417;28;20893;-82
2023/10/28 02:32:08;;;;;;;1.33;0.70;;;12.30;1.00;;;;;;4988255;28;20405;-81
2023/10/28 02:34:34;;;;;;;3.00;0.80;;;12.40;1.00;;;;;;4999645;28;20537;-83
2023/10/28 02:36:59;;;;;;;2.10;0.90;;;12.40;1.00;;;;;;4998767;28;21114;-83
2023/10/28 02:39:26;;;;;;;2.00;0.60;;;12.40;1.00;;;;;;4999651;28;20405;-81
2023/10/28 02:41:52;;;;;;;2.60;0.90;;;12.40;1.00;;;;;;4987054;28;20402;-82
2023/10/28 02:44:18;;;;;;;1.00;0.60;;;12.30;1.00;;;;;;4989209;28;20417;-82
2023/10/28 02:46:44;;;;;;;1.20;0.70;;;12.40;1.00;;;;;;4997421;28;20390;-84
2023/10/28 02:49:11;;;;;;;1.13;0.52;;;12.30;1.00;;;;;;4986934;28;20386;-83
2023/10/28 02:51:37;;;;;;;1.40;0.50;;;12.30;1.00;;;;;;4985368;28;20881;-82
2023/10/28 02:54:03;;;;;;;1.50;0.50;;;12.30;1.00;;;;;;4993579;28;20406;-81
2023/10/28 02:56:29;;;;;;;1.50;0.73;;;12.30;1.00;;;;;;4999427;28;20394;-82
2023/10/28 02:58:55;;;;;;;2.10;0.73;;;12.30;1.00;;;;;;4994175;28;20425;-82
2023/10/28 03:01:20;;;;;;;2.23;0.60;;;12.20;1.00;;;;;;4999340;28;21010;-82
2023/10/28 03:03:46;;;;;;;2.07;0.60;;;12.30;1.00;;;;;;4998720;28;20433;-83
2023/10/28 03:06:12;;;;;;;1.87;0.60;;;12.20;1.00;;;;;;4981701;28;20409;-82
2023/10/28 03:08:38;;;;;;;2.07;0.80;;;12.20;1.00;;;;;;4998848;28;20398;-84
2023/10/28 03:11:04;;;;;;;1.60;0.60;;;12.20;1.00;;;;;;4988346;28;20477;-83
2023/10/28 03:13:30;;;;;;;1.30;0.80;;;12.20;1.00;;;;;;4981028;28;20391;-84
2023/10/28 03:15:56;;;;;;;2.10;0.80;;;12.20;1.00;;;;;;4998768;28;20417;-83
2023/10/28 03:18:22;;;;;;;1.57;0.70;;;12.20;1.00;;;;;;4997916;28;20477;-83
2023/10/28 03:20:48;;;;;;;2.40;0.85;;;12.20;1.00;;;;;;4981460;28;20402;-83
2023/10/28 03:23:14;;;;;;;1.08;0.77;;;12.10;1.00;;;;;;5003544;28;20411;-83
2023/10/28 03:25:39;;;;;;;1.15;0.60;;;12.20;1.00;;;;;;4994657;28;20405;-82
2023/10/28 03:28:05;;;;;;;1.73;0.80;;;12.20;1.00;;;;;;4999114;28;20379;-82
2023/10/28 03:30:31;;;;;;;0.60;0.53;;;12.30;1.00;;;;;;4998258;28;20390;-83
2023/10/28 03:32:57;;;;;;;1.33;0.80;;;12.30;1.00;;;;;;4989385;28;20406;-82
2023/10/28 03:35:22;;;;;;;2.42;0.70;;;12.40;1.00;;;;;;5007493;28;20497;-84
2023/10/28 03:37:48;;;;;;;2.60;0.70;;;12.40;1.00;;;;;;4982530;28;20453;-83
2023/10/28 03:40:14;;;;;;;2.22;0.70;;;12.40;1.00;;;;;;4998783;28;20399;-83
2023/10/28 03:42:39;;;;;;;1.20;0.50;;;12.40;1.00;;;;;;4980563;28;20422;-83
2023/10/28 03:45:07;;;;;;;2.57;0.80;;;12.30;1.00;;;;;;4980628;28;20386;-84
2023/10/28 03:47:33;;;;;;;1.02;0.63;;;12.30;1.00;;;;;;4998373;28;20378;-83
2023/10/28 03:49:59;;;;;;;1.38;0.57;;;12.30;1.00;;;;;;4980739;28;20732;-83
2023/10/28 03:52:25;;;;;;;2.00;0.80;;;12.30;1.00;;;;;;4980177;28;20472;-83
2023/10/28 03:54:51;;;;;;;2.47;0.77;;;12.30;1.00;;;;;;4997201;28;20395;-83
2023/10/28 03:57:16;;;;;;;2.43;0.60;;;12.30;1.00;;;;;;4999225;28;20382;-82
2023/10/28 03:59:42;;;;;;;1.40;0.50;;;12.30;1.00;;;;;;4997258;28;20418;-82
2023/10/28 04:02:08;;;;;;;3.08;0.60;;;12.30;1.00;;;;;;4997797;28;20417;-83
2023/10/28 04:04:33;;;;;;;2.25;0.70;;;12.30;1.00;;;;;;4998308;28;20438;-81
2023/10/28 04:06:59;;;;;;;2.90;0.60;;;12.40;1.00;;;;;;4996735;28;20407;-82
2023/10/28 04:09:24;;;;;;;2.77;0.60;;;12.50;1.00;;;;;;4980809;28;20469;-83
2023/10/28 04:11:50;;;;;;;1.73;0.80;;;12.50;1.00;;;;;;4997887;23;20463;-81
2023/10/28 04:14:16;;;;;;;3.20;0.90;;;12.50;1.00;;;;;;5004500;28;20387;-81
2023/10/28 04:16:42;;;;;;;1.27;0.70;;;12.60;1.00;;;;;;5014369;28;20938;-81
2023/10/28 04:19:07;;;;;;;1.70;0.82;;;12.60;1.00;;;;;;5011669;28;20401;-80
2023/10/28 04:21:33;;;;;;;2.30;0.88;;;12.70;1.00;;;;;;5006688;28;20397;-81
2023/10/28 04:23:59;;;;;;;2.20;0.77;;;12.70;1.00;;;;;;5006052;28;20414;-80
2023/10/28 04:26:24;;;;;;;1.37;0.60;;;12.70;1.00;;;;;;4993799;28;20916;-82
2023/10/28 04:28:50;;;;;;;3.70;0.80;;;12.70;1.00;;;;;;4990693;28;20419;-82
2023/10/28 04:31:15;;;;;;;3.10;0.80;;;12.80;1.00;;;;;;4979945;28;20449;-81
2023/10/28 04:33:41;;;;;;;1.60;0.70;;;12.80;1.00;;;;;;5005579;28;20440;-81
2023/10/28 04:36:10;;;;;;;3.30;0.90;;;12.90;1.00;;;;;;4992226;28;20438;-82
2023/10/28 04:38:37;;;;;;;2.00;0.90;;;12.80;1.00;;;;;;4961973;28;20430;-80
2023/10/28 04:41:02;;;;;;;3.80;0.90;;;12.80;1.00;;;;;;4956801;28;20936;-81
2023/10/28 04:43:29;;;;;;;3.17;0.70;;;12.80;1.00;;;;;;4986513;28;20418;-81
2023/10/28 04:45:54;;;;;;;2.38;0.90;;;12.80;1.00;;;;;;4993870;28;20383;-81
2023/10/28 04:48:21;;;;;;;1.53;0.77;;;12.80;1.00;;;;;;4993400;28;20917;-81
2023/10/28 04:50:48;;;;;;;1.00;0.50;;;12.80;1.00;;;;;;4987072;28;20403;-81
2023/10/28 04:53:14;;;;;;;1.80;0.50;;;12.80;1.00;;;;;;5013642;28;20410;-81
2023/10/28 04:55:41;;;;;;;5.90;1.00;;;12.90;1.00;;;;;;5013694;28;20477;-82
2023/10/28 04:58:06;;;;;;;3.00;0.73;;;12.90;1.00;;;;;;5012586;28;20392;-81
2023/10/28 05:00:32;;;;;;;2.27;0.90;;;12.90;1.00;;;;;;4980319;28;20394;-81
2023/10/28 05:02:57;;;;;;;2.30;0.80;;;12.80;1.00;;;;;;4975166;28;20509;-81
2023/10/28 05:05:24;;;;;;;2.13;0.60;;;12.90;1.00;;;;;;4975445;28;20394;-81
2023/10/28 05:07:49;;;;;;;2.65;0.70;;;12.90;1.00;;;;;;4975094;28;20391;-82
2023/10/28 05:10:15;;;;;;;2.30;0.80;;;12.80;1.00;;;;;;4975099;28;20397;-82
2023/10/28 05:12:41;;;;;;;1.80;0.90;;;13.30;1.00;;;;;;4992611;28;20399;-80
2023/10/28 05:15:08;;;;;;;2.00;0.82;;;12.90;1.00;;;;;;4992425;28;20394;-80
2023/10/28 05:17:37;;;;;;;2.10;0.70;;;12.80;1.00;;;;;;4991059;28;20410;-81
2023/10/28 05:20:06;;;;;;;1.40;0.70;;;12.80;1.00;;;;;;4996210;28;20794;-81
2023/10/28 05:22:41;;;;;;;2.40;0.70;;;12.90;1.00;;;;;;5000802;28;20822;-81
2023/10/28 05:25:07;;;;;;;3.30;0.80;;;12.90;1.00;;;;;;4974970;28;20413;-81
2023/10/28 05:27:36;;;;;;;3.20;1.00;;;12.90;1.00;;;;;;4992547;28;20382;-81
2023/10/28 05:30:03;;;;;;;2.78;0.80;;;12.80;1.00;;;;;;4974529;28;20386;-81
2023/10/28 05:32:31;;;;;;;1.75;0.73;;;12.70;1.00;;;;;;4974884;28;20394;-81
2023/10/28 05:34:57;;;;;;;2.53;0.80;;;12.60;1.00;;;;;;4974195;28;20485;-81
2023/10/28 05:37:23;;;;;;;2.30;0.80;;;12.60;1.00;;;;;;4992194;28;20533;-80
2023/10/28 05:39:49;;;;;;;3.03;0.90;;;12.60;1.00;;;;;;4992976;28;20429;-81
2023/10/28 05:42:15;;;;;;;4.45;0.90;;;12.70;1.00;;;;;;4993041;28;20393;-82
2023/10/28 05:44:41;;;;;;;1.95;1.02;;;12.70;1.00;;;;;;4992805;28;20414;-82
2023/10/28 05:47:07;;;;;;;3.65;0.90;;;12.70;1.00;;;;;;4975769;28;20386;-82
2023/10/28 05:49:33;;;;;;;2.25;0.80;;;12.60;1.00;;;;;;4993016;28;20445;-82
2023/10/28 05:51:59;;;;;;;2.20;0.90;;;12.50;1.00;;;;;;4992140;28;20399;-80
2023/10/28 05:54:25;;;;;;;2.00;0.88;;;12.50;1.00;;;;;;4975018;28;20413;-81
2023/10/28 05:56:51;;;;;;;4.20;0.88;;;12.60;1.00;;;;;;4993331;28;20394;-81
2023/10/28 05:59:16;;;;;;;3.83;1.00;;;12.70;1.00;;;;;;4975722;28;20394;-82
2023/10/28 06:01:42;;;;;;;3.08;1.00;;;12.80;1.00;;;;;;5007574;28;20402;-80
2023/10/28 06:04:08;;;;;;;1.63;0.80;;;12.80;1.00;;;;;;5006059;28;20425;-80
2023/10/28 06:06:33;;;;;;;1.40;0.68;;;12.90;1.00;;;;;;5003617;28;20453;-80
2023/10/28 06:09:02;;;;;;;1.87;0.60;;;12.80;1.00;;;;;;4995246;28;20391;-81
2023/10/28 06:11:28;;;;;;;2.33;0.80;;;12.80;1.00;;;;;;4993560;28;20406;-80
2023/10/28 06:13:54;;;;;;;3.00;1.00;;;12.70;1.00;;;;;;4976025;28;20414;-81
2023/10/28 06:16:19;;;;;;;4.77;0.93;;;12.70;1.00;;;;;;4993354;28;20402;-82
2023/10/28 06:18:45;;;;;;;2.90;0.90;;;12.80;1.00;;;;;;4975941;28;21100;-82
2023/10/28 06:21:14;;;;;;;1.05;0.70;;;12.80;1.00;;;;;;4976254;28;20390;-82
2023/10/28 06:23:39;;;;;;;3.45;0.85;;;12.80;1.00;;;;;;4993647;28;20503;-82
2023/10/28 06:26:07;;;;;;;2.15;0.70;;;12.80;1.00;;;;;;4976400;28;20942;-82
2023/10/28 06:28:33;;;;;;;2.10;0.70;;;12.90;1.00;;;;;;4993722;28;20398;-82
2023/10/28 06:30:59;;;;;;;1.70;1.00;;;13.00;1.00;;;;;;4993350;28;20457;-82
2023/10/28 06:33:24;;;;;;;3.87;1.10;;;13.00;1.00;;;;;;4993220;28;20395;-82
2023/10/28 06:35:50;;;;;;;1.65;0.77;;;13.10;1.00;;;;;;4975831;28;20390;-82
2023/10/28 06:38:19;;;;;;;2.72;0.93;;;13.20;1.00;;;;;;4994271;28;20421;-83
2023/10/28 06:40:47;;;;;;;1.75;0.70;;;13.20;1.00;;;;;;4992934;28;20390;-81
2023/10/28 06:43:14;;;;;;;3.00;1.10;;;13.20;1.00;;;;;;4992720;28;20489;-81
2023/10/28 06:45:39;;;;;;;3.67;1.10;;;13.30;1.00;;;;;;4993502;28;20771;-82
2023/10/28 06:48:05;;;;;;;2.10;0.90;;;13.30;1.00;;;;;;4975880;28;20395;-81
2023/10/28 06:50:30;;;;;;;2.00;0.82;;;13.30;1.00;;;;;;4993665;28;20402;-82
2023/10/28 06:52:56;;;;;;;2.22;1.02;;;13.30;1.00;;;;;;4992889;28;20732;-81
2023/10/28 06:55:22;;;;;;;2.92;0.90;;;13.30;1.00;;;;;;4993367;28;20386;-80
2023/10/28 06:57:48;;;;;;;2.70;1.20;;;13.30;1.00;;;;;;4993601;28;20386;-83
2023/10/28 07:00:14;;;;;;;2.10;0.90;;;13.20;1.00;;;;;;4992983;28;20970;-82
2023/10/28 07:02:40;;;;;;;3.70;1.20;;;13.20;1.00;;;;;;4995386;28;20386;-81
2023/10/28 07:05:08;;;;;;;2.10;1.00;;;13.30;1.00;;;;;;5000530;28;20398;-81
2023/10/28 07:07:34;;;;;;;2.95;0.90;;;13.20;1.00;;;;;;5001510;28;20389;-82
2023/10/28 07:10:00;;;;;;;3.38;0.90;;;13.20;1.00;;;;;;5000167;28;20386;-81
2023/10/28 07:12:25;;;;;;;6.22;1.00;;;13.30;1.00;;;;;;4982397;28;20436;-80
2023/10/28 07:14:51;;;;;;;1.70;0.70;;;13.30;1.00;;;;;;5003315;28;20410;-79
2023/10/28 07:17:17;;;;;;;2.90;1.10;;;13.30;1.00;;;;;;4999521;28;20477;-81
2023/10/28 07:19:42;;;;;;;2.00;0.90;;;13.30;1.00;;;;;;5005614;28;20796;-81
2023/10/28 07:22:08;;;;;;;3.55;0.85;;;13.30;1.00;;;;;;4992304;28;20987;-81
2023/10/28 07:24:34;;;;;;;3.60;1.30;;;13.30;1.00;;;;;;5007353;28;20396;-81
2023/10/28 07:27:01;;;;;;;2.55;0.80;;;13.40;1.00;;;;;;4990907;28;20385;-81
2023/10/28 07:29:27;;;;;;;0.93;0.65;;;13.40;1.00;;;;;;5016159;28;20385;-81
2023/10/28 07:31:53;;;;;;;3.60;1.05;;;13.40;1.00;;;;;;5016148;28;20911;-82
2023/10/28 07:34:18;;;;;;;2.90;0.80;;;13.60;1.00;;;;;;5005743;28;20398;-82
2023/10/28 07:36:44;;;;;;;4.43;1.30;;;13.60;1.00;;;;;;5009371;28;20402;-82
2023/10/28 07:39:10;;;;;;;2.10;0.93;;;13.50;1.00;;;;;;4964490;28;20416;-82
2023/10/28 07:41:35;;;;;;;5.28;1.20;;;13.60;1.00;;;;;;4984408;28;20775;-82
2023/10/28 07:44:01;;;;;;;2.10;1.25;;;13.50;1.00;;;;;;4995320;28;20414;-80
2023/10/28 07:46:26;;;;;;;3.20;1.20;;;13.50;1.00;;;;;;4995871;28;20399;-82
2023/10/28 07:48:55;;;;;;;4.20;1.50;;;13.60;1.00;;;;;;4978342;28;20445;-81
2023/10/28 07:51:21;;;;;;;3.58;1.10;;;13.60;1.00;;;;;;4997341;28;20425;-81
2023/10/28 07:53:50;;;;;;;3.90;1.30;;;13.70;1.00;;;;;;4978141;28;20433;-82
2023/10/28 07:56:19;;;;;;;3.40;1.10;;;13.70;1.00;;;;;;4995994;28;20449;-82
2023/10/28 07:58:46;;;;;;;2.20;0.90;;;13.70;1.00;;;;;;4978433;28;20405;-81
2023/10/28 08:01:17;;;;;;;1.70;1.10;;;13.80;1.00;;;;;;4978264;28;20399;-82
2023/10/28 08:03:44;;;;;;;1.75;0.73;;;13.80;1.00;;;;;;5009834;28;20398;-79
2023/10/28 08:06:11;;;;;;;2.10;0.95;;;13.90;1.00;;;;;;5019084;28;20386;-78
2023/10/28 08:08:39;;;;;;;4.57;1.02;;;13.90;1.00;;;;;;5002247;28;20397;-79
2023/10/28 08:11:05;;;;;;;2.70;1.20;;;13.90;1.00;;;;;;4984635;28;20898;-82
2023/10/28 08:13:36;;;;;;;1.92;0.95;;;13.80;1.00;;;;;;4976016;28;20394;-81
2023/10/28 08:16:03;;;;;;;2.85;1.30;;;13.90;1.00;;;;;;4993415;28;20473;-79
2023/10/28 08:18:31;;;;;;;3.80;1.08;;;13.80;1.00;;;;;;4976802;28;20398;-81
2023/10/28 08:20:57;;;;;;;2.10;0.90;;;13.60;1.00;;;;;;4993177;28;20430;-80
2023/10/28 08:23:22;;;;;;;2.83;1.17;;;13.90;1.00;;;;;;4977041;28;20458;-79
2023/10/28 08:25:49;;;;;;;2.53;0.98;;;14.00;1.00;;;;;;4994865;28;20392;-83
2023/10/28 08:28:15;;;;;;;1.65;0.93;;;14.00;1.00;;;;;;4994551;28;20386;-80
2023/10/28 08:30:41;;;;;;;1.38;1.00;;;14.00;1.00;;;;;;4994285;28;20394;-80
2023/10/28 08:33:07;;;;;;;3.05;0.95;;;14.30;1.00;;;;;;4994385;28;20402;-81
2023/10/28 08:35:33;;;;;;;1.80;1.00;;;14.20;1.00;;;;;;4996022;28;20383;-81
2023/10/28 08:38:05;;;;;;;1.92;0.80;;;14.20;1.00;;;;;;4997440;28;20386;-80
2023/10/28 08:40:33;;;;;;;2.40;0.80;;;14.40;1.00;;;;;;4994214;28;20402;-81
2023/10/28 08:42:59;;;;;;;2.70;1.20;;;14.40;1.00;;;;;;4994261;28;20410;-81
2023/10/28 08:45:26;;;;;;;3.63;1.20;;;14.50;1.00;;;;;;4976792;28;20395;-80
2023/10/28 08:47:53;;;;;;;3.47;1.20;;;14.50;1.00;;;;;;4976621;28;20418;-80
2023/10/28 08:50:22;;;;;;;3.45;1.20;;;14.60;1.00;;;;;;4976405;28;20800;-81
2023/10/28 08:52:51;;;;;;;3.17;1.10;;;14.70;1.00;;;;;;4975670;28;20390;-81
2023/10/28 08:55:16;;;;;;;2.20;0.90;;;14.70;1.00;;;;;;4977081;28;20923;-81
2023/10/28 08:57:44;;;;;;;3.43;1.20;;;14.70;1.00;;;;;;4994082;28;20425;-81
2023/10/28 09:00:17;;;;;;;2.97;1.42;;;14.80;1.00;;;;;;4993753;28;20405;-82
2023/10/28 09:02:45;;;;;;;4.57;1.73;;;14.80;1.00;;;;;;4976531;28;20799;-82
2023/10/28 09:05:12;;;;;;;3.20;0.97;;;14.80;1.00;;;;;;4993541;28;20387;-81
2023/10/28 09:07:38;;;;;;;3.00;1.30;;;14.90;1.00;;;;;;4976631;28;20417;-82
2023/10/28 09:10:04;;;;;;;4.47;1.30;;;15.00;1.00;;;;;;4994024;28;20386;-82
2023/10/28 09:12:32;;;;;;;2.00;0.90;;;15.00;1.00;;;;;;4975026;28;20417;-82
2023/10/28 09:14:57;;;;;;;2.47;0.98;;;14.90;1.00;;;;;;4993156;28;20394;-82
2023/10/28 09:17:23;;;;;;;2.80;1.10;;;15.00;1.00;;;;;;4993728;28;20464;-81
2023/10/28 09:19:51;;;;;;;2.73;1.20;;;15.10;1.00;;;;;;4977645;28;20973;-82
2023/10/28 09:22:17;;;;;;;4.30;1.30;;;15.10;1.00;;;;;;4994233;28;20409;-81
2023/10/28 09:24:46;;;;;;;4.23;1.20;;;15.20;1.00;;;;;;4975623;28;20850;-81
2023/10/28 09:27:13;;;;;;;3.22;1.10;;;15.10;1.00;;;;;;4991864;28;20383;-82
2023/10/28 09:29:41;;;;;;;3.35;1.00;;;15.10;1.00;;;;;;4976056;28;20387;-84
2023/10/28 09:32:08;;;;;;;4.18;1.20;;;15.10;1.00;;;;;;4975424;28;20395;-81
2023/10/28 09:34:40;;;;;;;3.00;1.00;;;15.40;1.00;;;;;;4975821;28;20449;-81
2023/10/28 09:37:18;;;;;;;2.72;1.17;;;15.30;1.00;;;;;;4975635;28;20532;-83
2023/10/28 09:39:47;;;;;;;3.42;1.60;;;16.30;1.00;;;;;;4992804;28;20386;-82
2023/10/28 09:42:15;;;;;;;2.83;1.20;;;15.50;1.00;;;;;;4974133;28;20403;-81
2023/10/28 09:44:44;;;;;;;4.18;1.40;;;14.40;1.00;;;;;;4994465;28;20438;-82
2023/10/28 09:47:13;;;;;;;2.70;1.30;;;15.60;1.00;;;;;;4974968;28;20448;-81
2023/10/28 09:49:44;;;;;;;4.15;1.40;;;15.60;1.00;;;;;;4976053;28;20418;-82
2023/10/28 09:52:12;;;;;;;2.90;1.10;;;15.60;1.00;;;;;;4976570;28;20382;-83
2023/10/28 09:54:42;;;;;;;3.60;1.50;;;15.70;1.00;;;;;;4993642;28;20405;-82
2023/10/28 09:57:10;;;;;;;3.70;1.10;;;15.70;1.00;;;;;;4976320;28;20382;-82
2023/10/28 09:59:39;;;;;;;3.83;1.00;;;15.70;1.00;;;;;;4994203;28;20770;-82
2023/10/28 10:02:24;;;;;;;2.28;1.23;;;15.70;1.00;;;;;;4993509;28;20398;-81
2023/10/28 10:05:01;;;;;;;5.28;1.40;;;15.80;1.00;;;;;;4992794;28;20465;-82
2023/10/28 10:07:28;;;;;;;3.50;1.40;;;15.80;1.00;;;;;;4993741;28;20387;-82
2023/10/28 10:09:53;;;;;;;3.42;1.20;;;15.90;1.00;;;;;;4994081;28;20383;-82
2023/10/28 10:12:30;;;;;;;3.03;1.20;;;16.00;1.00;;;;;;5020604;23;20525;-82
2023/10/28 10:14:56;;;;;;;3.03;1.27;;;16.10;1.00;;;;;;5009349;28;20386;-82
2023/10/28 10:17:41;;;;;;;4.78;1.63;;;16.00;1.00;;;;;;5006017;28;20398;-83
2023/10/28 10:20:09;;;;;;;3.58;1.40;;;16.00;1.00;;;;;;4998795;28;20450;-82
2023/10/28 10:22:35;;;;;;;3.15;1.52;;;16.20;1.00;;;;;;4978910;28;20405;-83
2023/10/28 10:25:01;;;;;;;3.70;1.33;;;16.20;1.00;;;;;;4980389;28;20406;-82
2023/10/28 10:27:34;;;;;;;4.70;1.30;;;16.20;1.00;;;;;;4978555;28;20383;-82
2023/10/28 10:30:19;;;;;;;2.23;1.30;;;16.20;1.00;;;;;;4996260;28;20442;-82
2023/10/28 10:32:47;;;;;;;4.97;1.38;;;16.10;1.00;;;;;;4978527;28;20762;-82
2023/10/28 10:35:26;;;;;;;3.60;1.40;;;16.10;1.00;;;;;;4996360;28;20434;-83
2023/10/28 10:38:00;;;;;;;3.72;1.20;;;15.90;1.00;;;;;;4995601;28;20397;-82
2023/10/28 10:40:27;;;;;;;4.63;1.30;;;15.80;1.00;;;;;;4982817;28;20988;-82
2023/10/28 10:42:56;;;;;;;2.80;1.00;;;15.90;1.00;;;;;;5000124;28;20421;-85
2023/10/28 10:45:22;;;;;;;5.68;1.60;;;15.80;1.00;;;;;;4982009;28;20387;-83
2023/10/28 10:47:48;;;;;;;3.10;1.10;;;15.80;1.00;;;;;;4981094;28;20918;-82
2023/10/28 10:50:14;;;;;;;4.82;1.58;;;15.70;1.00;;;;;;4999081;28;20394;-82
2023/10/28 10:52:41;;;;;;;4.13;1.35;;;15.80;1.00;;;;;;5000123;28;20397;-82
2023/10/28 10:55:07;;;;;;;3.35;1.40;;;15.90;1.00;;;;;;4992101;28;20525;-83
2023/10/28 10:57:33;;;;;;;2.22;1.10;;;16.00;1.00;;;;;;5004200;28;20391;-81
2023/10/28 11:00:00;;;;;;;3.85;1.52;;;16.00;1.00;;;;;;4999333;28;20819;-82
2023/10/28 11:02:25;;;;;;;4.10;1.40;;;15.80;1.00;;;;;;4999066;28;20390;-80
2023/10/28 11:04:51;;;;;;;6.33;1.67;;;16.00;1.00;;;;;;4998154;28;20492;-81
2023/10/28 11:07:16;;;;;;;4.50;1.30;;;16.00;1.00;;;;;;4998795;28;20822;-82
2023/10/28 11:09:42;;;;;;;3.97;1.60;;;16.00;1.00;;;;;;4998793;28;20390;-81
2023/10/28 11:12:08;;;;;;;3.10;1.30;;;15.90;1.00;;;;;;4997886;28;20422;-82
2023/10/28 11:14:33;;;;;;;3.58;1.38;;;15.90;1.00;;;;;;5001433;28;20382;-80
2023/10/28 11:16:59;;;;;;;4.83;1.50;;;15.80;1.00;;;;;;4984596;28;20775;-81
2023/10/28 11:19:25;;;;;;;4.18;1.58;;;15.80;1.00;;;;;;4981948;28;20406;-81
2023/10/28 11:21:50;;;;;;;3.77;1.33;;;15.90;1.00;;;;;;4998863;28;20394;-81
2023/10/28 11:24:17;;;;;;;2.90;1.20;;;15.90;1.00;;;;;;4998341;28;20472;-81
2023/10/28 11:26:46;;;;;;;2.53;1.20;;;16.10;1.00;;;;;;4998838;28;20476;-82
2023/10/28 11:29:15;;;;;;;4.80;1.35;;;16.10;1.00;;;;;;4981035;28;20464;-81
2023/10/28 11:31:41;;;;;;;4.70;1.30;;;16.10;1.00;;;;;;4981350;28;20387;-82
2023/10/28 11:34:06;;;;;;;3.40;1.40;;;16.10;1.00;;;;;;4998963;28;20457;-82
2023/10/28 11:36:33;;;;;;;2.72;1.40;;;16.10;1.00;;;;;;4994421;28;20457;-83
2023/10/28 11:39:09;;;;;;;2.80;1.30;;;16.20;1.00;;;;;;4989481;28;20485;-83
2023/10/28 11:41:35;;;;;;;3.60;1.70;;;16.10;1.00;;;;;;5016038;28;20459;-84
2023/10/28 11:44:00;;;;;;;3.70;1.40;;;16.10;1.00;;;;;;4996078;28;20415;-84
2023/10/28 11:46:26;;;;;;;4.60;1.50;;;15.90;1.00;;;;;;4988676;28;20470;-82
2023/10/28 11:48:51;;;;;;;4.70;1.08;;;15.90;1.00;;;;;;4984718;28;20489;-82
2023/10/28 11:51:17;;;;;;;4.20;1.50;;;15.90;1.00;;;;;;5002265;28;20810;-83
2023/10/28 11:53:47;;;;;;;3.50;1.10;;;16.10;1.00;;;;;;5018588;28;20396;-84
2023/10/28 11:56:15;;;;;;;3.90;1.50;;;16.40;1.00;;;;;;5019492;28;20458;-85
2023/10/28 11:58:43;;;;;;;4.03;1.35;;;16.60;1.00;;;;;;5002633;28;20417;-85
2023/10/28 12:01:09;;;;;;;3.80;1.50;;;16.40;1.00;;;;;;5020375;28;20788;-84
2023/10/28 12:03:34;;;;;;;4.43;1.60;;;16.10;1.00;;;;;;5014588;28;20467;-83
2023/10/28 12:06:00;;;;;;;3.73;0.93;;;16.40;1.00;;;;;;5002671;28;20428;-84
2023/10/28 12:08:26;;;;;;;4.80;1.40;;;16.20;1.00;;;;;;4984782;28;20463;-83
2023/10/28 12:10:51;;;;;;;2.27;1.20;;;16.30;1.00;;;;;;5004664;28;20382;-85
2023/10/28 12:13:18;;;;;;;2.88;1.20;;;15.90;1.00;;;;;;4984902;28;20437;-84
2023/10/28 12:15:44;;;;;;;3.13;1.20;;;16.10;1.00;;;;;;5006058;28;20387;-85
2023/10/28 12:18:09;;;;;;;2.40;1.20;;;16.00;1.00;;;;;;4994366;28;20395;-86
2023/10/28 12:20:36;;;;;;;3.20;1.50;;;15.60;1.00;;;;;;5005512;28;20437;-84
2023/10/28 12:23:02;;;;;;;3.45;1.08;;;16.20;1.00;;;;;;5005239;28;20414;-85
2023/10/28 12:25:28;;;;;;;5.80;1.50;;;16.10;1.00;;;;;;5003384;28;20525;-84
2023/10/28 12:27:54;;;;;;;3.97;1.70;;;16.20;1.00;;;;;;5004235;28;20763;-84
2023/10/28 12:30:19;;;;;;;3.17;1.23;;;16.40;1.00;;;;;;4987079;28;20394;-85
2023/10/28 12:32:47;;;;;;;3.97;1.80;;;16.40;1.00;;;;;;5005452;28;20437;-85
2023/10/28 12:35:13;;;;;;;4.78;1.70;;;16.10;1.00;;;;;;5002940;28;20382;-83
2023/10/28 12:37:42;;;;;;;3.70;1.30;;;16.00;1.00;;;;;;5001311;28;20522;-83
2023/10/28 12:40:12;;;;;;;5.50;1.80;;;16.00;1.00;;;;;;5005416;28;20395;-85
2023/10/28 12:42:39;;;;;;;4.25;1.60;;;15.80;1.00;;;;;;5001815;28;20466;-83
2023/10/28 12:45:09;;;;;;;3.92;1.40;;;15.80;1.00;;;;;;5000450;28;20402;-84
2023/10/28 12:47:35;;;;;;;3.75;1.60;;;15.90;1.00;;;;;;4983565;28;20398;-83
2023/10/28 12:50:03;;;;;;;2.67;1.20;;;15.80;1.00;;;;;;5003835;28;20390;-85
2023/10/28 12:52:31;;;;;;;2.47;1.50;;;15.70;1.00;;;;;;5006896;28;20898;-85
2023/10/28 12:55:03;;;;;;;4.85;1.70;;;15.70;1.00;;;;;;5002319;28;20409;-84